EAGO2: Mountain Fork Riv, Eagletown,

                                SHEF ID:       EAGO2     Mountain Fork near Eagletown, OK
STATION TYPE: Stream Gauge
Regulating: Stage = 9.00, Flow = 9433

PRECIP STAGE RIV-FLOW WTR-TEMP BAT-LOAD
in ft cfs F volt
Ccp-Rev Ccp-Rev Ccp-Rev Ccp-Rev Ccp-Rev
(America/Chicago)
04/25 00:00 0.00 4.34 2801 62.85 12.09
04/25 01:00 0.00 4.12 2541 62.92 12.01
04/25 02:00 0.00 3.88 2259 62.83 12.01
04/25 03:00 0.00 3.64 1988 62.64 11.93
04/25 04:00 0.00 3.42 1749 62.46 11.93
04/25 05:00 0.00 3.20 1527 62.26 11.93
04/25 06:00 0.00 3.01 1342 62.08 11.93
04/25 07:00 0.00 2.83 1180 61.92 11.93
04/25 08:00 0.00 2.67 1047 61.86 12.17
04/25 09:00 0.00 2.52 926 61.93 12.89
04/25 10:00 0.00 2.39 829 62.20 12.97
04/25 11:00 0.00 2.26 738 62.62 12.97
04/25 12:00 0.00 2.14 662 63.03 12.73
04/25 13:00 0.00 2.04 604 63.37 12.65
04/25 14:00 0.00 1.95 557 63.81 12.65
04/25 15:00 0.00 1.87 518 64.20 12.65
04/25 16:00 0.00 1.78 476 64.49 12.65
04/25 17:00 0.00 1.71 446 64.67 12.65
04/25 18:00 0.00 1.65 421 64.76 12.57
04/25 19:00 0.00 1.59 397 64.83 12.57
04/25 20:00 0.00 1.86 513 64.72 12.25
04/25 21:00 0.00 3.00 1333 63.88 12.09
04/25 22:00 0.00 3.92 2307 62.42 12.09
04/25 23:00 0.00 4.06 2473 62.42 12.09
Data processed at Sun 26Apr2026 04:39 GMT

NOTICE: If you are parsing this page

Please convert to using our Data API. Starting early 2026 we will be migrating to: https://water.usace.army.mil with modern pages rendered in JavaScript. When this migration completes you will no longer be able to scrape this page! CWMSDataAPI (CDA)

Timeseries IDs (TSIDs)

TSIDs used from left to right in the data table
EAGL.Precip-Inc.Total.1Hour.1Hour.Ccp-Rev
EAGL.Stage.Inst.1Hour.0.Ccp-Rev
EAGL.Flow.Inst.1Hour.0.Ccp-Rev
EAGL.Temp-Water.Inst.1Hour.0.Ccp-Rev
EAGL.Volt-Battery Load.Inst.1Hour.0.Ccp-Rev

                            

All information presented herein is the property of the government of the United States of America and may be revised or deleted at any time without prior notice. Dissemination of this information without the expressed written consent of the Public Affairs Office, Tulsa District U.S. Army Corps of Engineers is strictly prohibited. These data are gathered electronically and, as presented, have NOT undergone any form of quality control. These data are NOT guaranteed to be valid or correct.